Time,TemperatureF,DewpointF,PressureIn,WindDirection,WindDirectionDegrees,WindSpeedMPH,WindSpeedGustMPH,Humidity,HourlyPrecipIn,Conditions,Clouds,dailyrainin,SoftwareType,DateUTC
2013-02-27 00:10:00,40.8,29.3,30.33,SSW,198,0.0,0.0,68,0.00,,,0.00,WMR918D-Custom,2013-02-27 08:10:00,
2013-02-27 00:20:00,40.6,29.1,30.33,SSW,198,0.0,0.0,68,0.00,,,0.00,WMR918D-Custom,2013-02-27 08:20:00,
2013-02-27 00:30:00,40.5,28.9,30.33,SSW,199,0.0,0.0,68,0.00,,,0.00,WMR918D-Custom,2013-02-27 08:30:00,
2013-02-27 00:40:00,40.3,29.1,30.33,SSW,198,0.0,0.0,69,0.00,,,0.00,WMR918D-Custom,2013-02-27 08:40:00,
2013-02-27 00:50:00,40.3,29.1,30.33,SSW,198,0.0,0.0,69,0.00,,,0.00,WMR918D-Custom,2013-02-27 08:50:00,
2013-02-27 01:00:00,40.1,29.3,30.33,SSW,198,0.0,0.0,70,0.00,,,0.00,WMR918D-Custom,2013-02-27 09:00:00,
2013-02-27 01:10:00,39.9,29.1,30.33,SSW,197,0.0,0.0,70,0.00,,,0.00,WMR918D-Custom,2013-02-27 09:10:00,
2013-02-27 01:20:00,39.7,28.9,30.33,SSW,198,0.0,0.0,70,0.00,,,0.00,WMR918D-Custom,2013-02-27 09:20:00,
2013-02-27 01:30:00,39.6,29.1,30.33,SSW,198,0.0,0.0,71,0.00,,,0.00,WMR918D-Custom,2013-02-27 09:30:00,
2013-02-27 01:40:00,39.4,28.9,30.33,SSW,197,0.0,0.0,71,0.00,,,0.00,WMR918D-Custom,2013-02-27 09:40:00,
2013-02-27 01:50:00,39.2,28.8,30.33,SSW,199,0.0,0.0,71,0.00,,,0.00,WMR918D-Custom,2013-02-27 09:50:00,
2013-02-27 02:00:00,39.0,28.9,30.33,SSW,198,0.0,0.0,72,0.00,,,0.00,WMR918D-Custom,2013-02-27 10:00:00,
2013-02-27 02:10:00,38.8,28.8,30.33,SSW,198,0.0,0.0,72,0.00,,,0.00,WMR918D-Custom,2013-02-27 10:10:00,
2013-02-27 02:20:00,38.8,28.8,30.33,SSW,197,0.0,0.0,72,0.00,,,0.00,WMR918D-Custom,2013-02-27 10:20:00,
2013-02-27 02:30:00,38.7,28.9,30.33,SSW,198,0.0,0.0,73,0.00,,,0.00,WMR918D-Custom,2013-02-27 10:30:00,
2013-02-27 02:40:00,38.7,28.9,30.33,SSW,198,0.0,0.0,73,0.00,,,0.00,WMR918D-Custom,2013-02-27 10:40:00,
2013-02-27 02:50:00,38.5,28.8,30.33,SSW,198,0.0,0.0,73,0.00,,,0.00,WMR918D-Custom,2013-02-27 10:50:00,
2013-02-27 03:00:00,38.5,29.1,30.33,SSW,199,0.0,0.0,74,0.00,,,0.00,WMR918D-Custom,2013-02-27 11:00:00,
2013-02-27 03:10:00,38.3,28.9,30.33,SSW,198,0.0,0.0,74,0.00,,,0.00,WMR918D-Custom,2013-02-27 11:10:00,
2013-02-27 03:20:00,38.1,28.8,30.33,SSW,198,0.0,0.0,74,0.00,,,0.00,WMR918D-Custom,2013-02-27 11:20:00,
2013-02-27 03:30:00,37.9,28.6,30.33,SSW,198,0.0,0.0,74,0.00,,,0.00,WMR918D-Custom,2013-02-27 11:30:00,
2013-02-27 03:40:00,37.9,28.9,30.33,SSW,197,0.0,0.0,75,0.00,,,0.00,WMR918D-Custom,2013-02-27 11:40:00,
2013-02-27 03:50:00,37.8,29.1,30.33,SSW,198,0.0,0.0,76,0.00,,,0.00,WMR918D-Custom,2013-02-27 11:50:00,
2013-02-27 04:00:00,37.6,28.9,30.33,SSW,197,0.0,0.0,76,0.00,,,0.00,WMR918D-Custom,2013-02-27 12:00:00,
2013-02-27 04:10:00,37.6,28.9,30.36,SSW,198,0.0,0.0,76,0.00,,,0.00,WMR918D-Custom,2013-02-27 12:10:00,
2013-02-27 04:20:00,37.4,28.8,30.36,SSW,199,0.0,0.0,76,0.00,,,0.00,WMR918D-Custom,2013-02-27 12:20:00,
2013-02-27 04:30:00,37.2,28.9,30.36,SSW,198,0.0,0.0,77,0.00,,,0.00,WMR918D-Custom,2013-02-27 12:30:00,
2013-02-27 04:40:00,37.0,28.8,30.36,SSW,197,0.0,0.0,77,0.00,,,0.00,WMR918D-Custom,2013-02-27 12:40:00,
2013-02-27 04:50:00,37.0,29.1,30.36,SSW,198,0.0,0.0,78,0.00,,,0.00,WMR918D-Custom,2013-02-27 12:50:00,
2013-02-27 05:00:00,36.9,28.9,30.36,SSW,197,0.0,0.0,78,0.00,,,0.00,WMR918D-Custom,2013-02-27 13:00:00,
2013-02-27 05:10:00,36.9,28.9,30.36,SSW,198,0.0,0.0,78,0.00,,,0.00,WMR918D-Custom,2013-02-27 13:10:00,
2013-02-27 05:20:00,36.7,28.8,30.36,SSW,198,0.0,0.0,78,0.00,,,0.00,WMR918D-Custom,2013-02-27 13:20:00,
2013-02-27 05:30:00,36.7,29.1,30.36,SSW,198,0.0,0.0,79,0.00,,,0.00,WMR918D-Custom,2013-02-27 13:30:00,
2013-02-27 05:40:00,36.5,28.9,30.36,SSW,199,0.0,0.0,79,0.00,,,0.00,WMR918D-Custom,2013-02-27 13:40:00,
2013-02-27 05:50:00,36.3,28.8,30.36,SSW,198,0.0,0.0,79,0.00,,,0.00,WMR918D-Custom,2013-02-27 13:50:00,
2013-02-27 06:00:00,36.3,29.1,30.36,SSW,197,0.0,0.0,80,0.00,,,0.00,WMR918D-Custom,2013-02-27 14:00:00,
2013-02-27 06:10:00,36.1,28.9,30.36,SSW,199,0.0,0.0,80,0.00,,,0.00,WMR918D-Custom,2013-02-27 14:10:00,
2013-02-27 06:20:00,36.1,28.9,30.36,SSW,198,0.0,0.0,80,0.00,,,0.00,WMR918D-Custom,2013-02-27 14:20:00,
2013-02-27 06:30:00,36.1,29.3,30.36,SSW,198,0.0,0.0,81,0.00,,,0.00,WMR918D-Custom,2013-02-27 14:30:00,
2013-02-27 06:40:00,36.0,29.1,30.36,SSW,198,0.0,0.0,81,0.00,,,0.00,WMR918D-Custom,2013-02-27 14:40:00,
2013-02-27 06:50:00,36.0,29.1,30.36,SSW,198,0.0,0.0,81,0.00,,,0.00,WMR918D-Custom,2013-02-27 14:50:00,
2013-02-27 07:00:00,36.1,29.3,30.36,SSW,198,0.0,0.0,81,0.00,,,0.00,WMR918D-Custom,2013-02-27 15:00:00,
2013-02-27 07:10:00,36.1,29.7,30.36,SSW,198,0.0,0.0,82,0.00,,,0.00,WMR918D-Custom,2013-02-27 15:10:00,
2013-02-27 07:20:00,36.5,30.0,30.36,SSW,198,0.0,0.0,82,0.00,,,0.00,WMR918D-Custom,2013-02-27 15:20:00,
2013-02-27 07:30:00,37.0,30.9,30.39,SSW,198,0.0,0.0,83,0.00,,,0.00,WMR918D-Custom,2013-02-27 15:30:00,
2013-02-27 07:40:00,37.8,31.3,30.39,SSW,198,0.0,0.0,82,0.00,,,0.00,WMR918D-Custom,2013-02-27 15:40:00,
2013-02-27 07:50:00,38.8,32.4,30.39,SSW,199,0.0,0.0,82,0.00,,,0.00,WMR918D-Custom,2013-02-27 15:50:00,
2013-02-27 08:00:00,39.9,33.4,30.39,SSW,197,0.0,0.0,82,0.00,,,0.00,WMR918D-Custom,2013-02-27 16:00:00,
2013-02-27 08:10:00,41.4,35.2,30.42,SSW,198,0.0,0.0,83,0.00,,,0.00,WMR918D-Custom,2013-02-27 16:10:00,
2013-02-27 08:20:00,43.2,37.0,30.42,North,353,0.0,0.0,83,0.00,,,0.00,WMR918D-Custom,2013-02-27 16:20:00,
2013-02-27 08:30:00,44.2,38.1,30.42,North,353,0.0,0.0,83,0.00,,,0.00,WMR918D-Custom,2013-02-27 16:30:00,
2013-02-27 08:40:00,45.5,39.0,30.42,North,353,0.0,0.0,82,0.00,,,0.00,WMR918D-Custom,2013-02-27 16:40:00,
2013-02-27 08:50:00,46.4,39.9,30.42,North,353,0.0,0.0,82,0.00,,,0.00,WMR918D-Custom,2013-02-27 16:50:00,
2013-02-27 09:00:00,47.7,41.2,30.42,ENE,60,0.0,0.0,82,0.00,,,0.00,WMR918D-Custom,2013-02-27 17:00:00,
2013-02-27 09:10:00,48.6,42.1,30.42,South,188,0.0,0.0,82,0.00,,,0.00,WMR918D-Custom,2013-02-27 17:10:00,
2013-02-27 09:20:00,49.5,42.6,30.42,NW,309,0.0,0.0,81,0.00,,,0.00,WMR918D-Custom,2013-02-27 17:20:00,
2013-02-27 09:30:00,50.4,43.2,30.42,WNW,289,0.0,0.0,80,0.00,,,0.00,WMR918D-Custom,2013-02-27 17:30:00,
2013-02-27 09:40:00,51.3,43.3,30.42,NW,323,0.0,0.0,78,0.00,,,0.00,WMR918D-Custom,2013-02-27 17:40:00,
2013-02-27 09:50:00,52.3,43.3,30.42,North,357,0.0,0.0,75,0.00,,,0.00,WMR918D-Custom,2013-02-27 17:50:00,
2013-02-27 10:00:00,53.2,43.5,30.42,NE,44,0.0,0.0,73,0.00,,,0.00,WMR918D-Custom,2013-02-27 18:00:00,
2013-02-27 10:10:00,54.3,43.5,30.42,WSW,243,0.0,0.0,70,0.00,,,0.00,WMR918D-Custom,2013-02-27 18:10:00,
2013-02-27 10:20:00,55.0,43.2,30.42,East,85,0.0,0.0,67,0.00,,,0.00,WMR918D-Custom,2013-02-27 18:20:00,
2013-02-27 10:30:00,55.9,42.3,30.42,ENE,72,0.0,0.0,62,0.00,,,0.00,WMR918D-Custom,2013-02-27 18:30:00,
2013-02-27 10:40:00,56.7,42.3,30.42,NE,42,0.0,0.0,60,0.00,,,0.00,WMR918D-Custom,2013-02-27 18:40:00,
2013-02-27 10:50:00,57.0,42.3,30.42,NE,46,0.0,0.0,59,0.00,,,0.00,WMR918D-Custom,2013-02-27 18:50:00,
2013-02-27 11:00:00,57.6,42.1,30.42,ESE,107,0.0,0.0,57,0.00,,,0.00,WMR918D-Custom,2013-02-27 19:00:00,
2013-02-27 11:10:00,58.3,41.7,30.42,ESE,114,2.7,4.0,54,0.00,,,0.00,WMR918D-Custom,2013-02-27 19:10:00,
2013-02-27 11:20:00,59.0,42.4,30.42,SSE,159,0.0,0.0,54,0.00,,,0.00,WMR918D-Custom,2013-02-27 19:20:00,
2013-02-27 11:30:00,59.9,42.6,30.42,NNW,333,4.0,4.0,52,0.00,,,0.00,WMR918D-Custom,2013-02-27 19:30:00,
2013-02-27 11:40:00,60.6,43.0,30.42,NNW,343,0.0,2.7,51,0.00,,,0.00,WMR918D-Custom,2013-02-27 19:40:00,
2013-02-27 11:50:00,61.5,43.9,30.42,NW,324,0.0,0.0,51,0.00,,,0.00,WMR918D-Custom,2013-02-27 19:50:00,
2013-02-27 12:00:00,62.2,45.0,30.42,WNW,303,4.0,4.0,52,0.00,,,0.00,WMR918D-Custom,2013-02-27 20:00:00,
2013-02-27 12:10:00,62.8,45.9,30.39,North,349,2.7,3.1,53,0.00,,,0.00,WMR918D-Custom,2013-02-27 20:10:00,
2013-02-27 12:20:00,63.1,46.2,30.39,NW,313,3.1,3.1,53,0.00,,,0.00,WMR918D-Custom,2013-02-27 20:20:00,
2013-02-27 12:30:00,63.3,45.7,30.39,NNE,26,2.7,0.0,51,0.00,,,0.00,WMR918D-Custom,2013-02-27 20:30:00,
2013-02-27 12:40:00,63.9,45.5,30.39,NNW,333,3.1,0.0,49,0.00,,,0.00,WMR918D-Custom,2013-02-27 20:40:00,
2013-02-27 12:50:00,64.2,45.9,30.39,NNW,340,3.1,4.0,49,0.00,,,0.00,WMR918D-Custom,2013-02-27 20:50:00,
2013-02-27 13:00:00,64.4,45.0,30.39,North,10,0.0,0.0,46,0.00,,,0.00,WMR918D-Custom,2013-02-27 21:00:00,
2013-02-27 13:10:00,64.6,45.1,30.39,NNE,27,2.2,3.6,46,0.00,,,0.00,WMR918D-Custom,2013-02-27 21:10:00,
2013-02-27 13:20:00,65.1,45.0,30.39,NNW,341,3.6,4.0,44,0.00,,,0.00,WMR918D-Custom,2013-02-27 21:20:00,
2013-02-27 13:30:00,65.1,44.2,30.39,NNE,29,3.6,4.0,42,0.00,,,0.00,WMR918D-Custom,2013-02-27 21:30:00,
2013-02-27 13:40:00,65.1,43.9,30.39,North,8,4.5,4.5,41,0.00,,,0.00,WMR918D-Custom,2013-02-27 21:40:00,
2013-02-27 13:50:00,65.1,42.8,30.39,North,353,2.7,2.7,38,0.00,,,0.00,WMR918D-Custom,2013-02-27 21:50:00,
2013-02-27 14:00:00,65.5,43.9,30.36,North,11,3.1,3.6,40,0.00,,,0.00,WMR918D-Custom,2013-02-27 22:00:00,
2013-02-27 14:10:00,65.8,44.2,30.36,NNW,341,2.7,4.0,40,0.00,,,0.00,WMR918D-Custom,2013-02-27 22:10:00,
2013-02-27 14:20:00,65.8,44.2,30.36,NNE,31,4.5,5.8,40,0.00,,,0.00,WMR918D-Custom,2013-02-27 22:20:00,
2013-02-27 14:30:00,65.7,43.3,30.36,WNW,293,2.7,3.1,38,0.00,,,0.00,WMR918D-Custom,2013-02-27 22:30:00,
2013-02-27 14:40:00,66.0,43.3,30.36,NW,309,2.7,2.7,37,0.00,,,0.00,WMR918D-Custom,2013-02-27 22:40:00,
2013-02-27 14:50:00,66.2,43.5,30.36,WNW,297,3.6,3.6,37,0.00,,,0.00,WMR918D-Custom,2013-02-27 22:50:00,
2013-02-27 15:00:00,66.6,44.2,30.36,WNW,299,3.6,4.0,38,0.00,,,0.00,WMR918D-Custom,2013-02-27 23:00:00,
2013-02-27 15:10:00,67.1,44.4,30.36,NNW,343,4.5,4.9,37,0.00,,,0.00,WMR918D-Custom,2013-02-27 23:10:00,
2013-02-27 15:20:00,67.3,44.6,30.36,ENE,72,2.2,3.1,37,0.00,,,0.00,WMR918D-Custom,2013-02-27 23:20:00,
2013-02-27 15:30:00,67.6,45.0,30.36,NNW,332,2.7,4.0,37,0.00,,,0.00,WMR918D-Custom,2013-02-27 23:30:00,
2013-02-27 15:40:00,67.6,45.7,30.36,NE,44,4.5,4.5,39,0.00,,,0.00,WMR918D-Custom,2013-02-27 23:40:00,
2013-02-27 15:50:00,67.8,45.9,30.36,NNW,341,3.6,3.6,39,0.00,,,0.00,WMR918D-Custom,2013-02-27 23:50:00,
2013-02-27 16:00:00,67.6,45.7,30.36,North,3,3.6,3.6,39,0.00,,,0.00,WMR918D-Custom,2013-02-28 00:00:00,
2013-02-27 16:10:00,67.6,46.4,30.36,ENE,62,0.0,4.0,41,0.00,,,0.00,WMR918D-Custom,2013-02-28 00:10:00,
2013-02-27 16:20:00,67.5,46.2,30.36,North,349,0.0,0.0,41,0.00,,,0.00,WMR918D-Custom,2013-02-28 00:20:00,
2013-02-27 16:30:00,67.5,44.8,30.36,North,11,3.6,3.6,37,0.00,,,0.00,WMR918D-Custom,2013-02-28 00:30:00,
2013-02-27 16:40:00,67.3,44.6,30.36,NE,52,0.0,0.0,37,0.00,,,0.00,WMR918D-Custom,2013-02-28 00:40:00,
2013-02-27 16:50:00,67.1,44.4,30.36,North,4,0.0,0.0,37,0.00,,,0.00,WMR918D-Custom,2013-02-28 00:50:00,
2013-02-27 17:00:00,66.7,44.1,30.36,NE,35,0.0,0.0,37,0.00,,,0.00,WMR918D-Custom,2013-02-28 01:00:00,
2013-02-27 17:10:00,66.4,44.8,30.36,NE,54,0.0,4.0,40,0.00,,,0.00,WMR918D-Custom,2013-02-28 01:10:00,
2013-02-27 17:20:00,65.8,44.2,30.36,North,353,0.0,0.0,40,0.00,,,0.00,WMR918D-Custom,2013-02-28 01:20:00,
2013-02-27 17:30:00,65.3,43.7,30.39,NNW,333,0.0,0.0,40,0.00,,,0.00,WMR918D-Custom,2013-02-28 01:30:00,
2013-02-27 17:40:00,64.8,43.2,30.39,NNW,333,0.0,0.0,40,0.00,,,0.00,WMR918D-Custom,2013-02-28 01:40:00,
2013-02-27 17:50:00,64.0,42.4,30.39,NW,312,2.7,2.7,40,0.00,,,0.00,WMR918D-Custom,2013-02-28 01:50:00,
2013-02-27 18:00:00,63.7,42.1,30.39,WNW,294,3.1,3.1,40,0.00,,,0.00,WMR918D-Custom,2013-02-28 02:00:00,
2013-02-27 18:10:00,63.1,42.3,30.39,NW,323,4.0,0.0,42,0.00,,,0.00,WMR918D-Custom,2013-02-28 02:10:00,
2013-02-27 18:20:00,62.2,41.4,30.39,West,267,0.0,3.1,42,0.00,,,0.00,WMR918D-Custom,2013-02-28 02:20:00,
2013-02-27 18:30:00,61.7,40.5,30.39,NW,318,0.0,0.0,41,0.00,,,0.00,WMR918D-Custom,2013-02-28 02:30:00,
2013-02-27 18:40:00,61.0,40.1,30.42,SW,225,0.0,0.0,42,0.00,,,0.00,WMR918D-Custom,2013-02-28 02:40:00,
2013-02-27 18:50:00,60.3,39.4,30.42,NW,310,0.0,0.0,42,0.00,,,0.00,WMR918D-Custom,2013-02-28 02:50:00,
2013-02-27 19:00:00,59.7,39.2,30.42,North,0,0.0,3.6,43,0.00,,,0.00,WMR918D-Custom,2013-02-28 03:00:00,
2013-02-27 19:10:00,59.0,39.2,30.42,SW,235,0.0,0.0,45,0.00,,,0.00,WMR918D-Custom,2013-02-28 03:10:00,
2013-02-27 19:20:00,58.3,38.8,30.42,West,275,0.0,0.0,46,0.00,,,0.00,WMR918D-Custom,2013-02-28 03:20:00,
2013-02-27 19:30:00,57.6,38.5,30.42,West,275,0.0,0.0,47,0.00,,,0.00,WMR918D-Custom,2013-02-28 03:30:00,
2013-02-27 19:40:00,56.8,38.1,30.45,NNW,334,3.6,0.0,48,0.00,,,0.00,WMR918D-Custom,2013-02-28 03:40:00,
2013-02-27 19:50:00,57.2,38.8,30.45,North,0,0.0,0.0,49,0.00,,,0.00,WMR918D-Custom,2013-02-28 03:50:00,
2013-02-27 20:00:00,56.8,38.8,30.45,SSW,195,0.0,0.0,50,0.00,,,0.00,WMR918D-Custom,2013-02-28 04:00:00,
2013-02-27 20:10:00,56.3,39.0,30.45,SSW,196,0.0,0.0,52,0.00,,,0.00,WMR918D-Custom,2013-02-28 04:10:00,
2013-02-27 20:20:00,55.4,38.5,30.45,SSW,195,0.0,0.0,53,0.00,,,0.00,WMR918D-Custom,2013-02-28 04:20:00,
2013-02-27 20:30:00,54.7,38.5,30.45,SSW,196,0.0,0.0,55,0.00,,,0.00,WMR918D-Custom,2013-02-28 04:30:00,
2013-02-27 20:40:00,54.1,38.3,30.45,SSW,196,0.0,0.0,56,0.00,,,0.00,WMR918D-Custom,2013-02-28 04:40:00,
2013-02-27 20:50:00,53.6,38.1,30.45,SSW,195,0.0,0.0,57,0.00,,,0.00,WMR918D-Custom,2013-02-28 04:50:00,
2013-02-27 21:10:00,53.2,38.5,30.45,SSW,200,0.0,0.0,59,0.00,,,0.00,WMR918D-Custom,2013-02-28 05:10:00,
2013-02-27 21:20:00,53.2,38.8,30.45,South,186,0.0,0.0,60,0.00,,,0.00,WMR918D-Custom,2013-02-28 05:20:00,
2013-02-27 21:30:00,53.1,38.7,30.45,SE,128,0.0,0.0,60,0.00,,,0.00,WMR918D-Custom,2013-02-28 05:30:00,
2013-02-27 21:40:00,52.7,39.0,30.48,SSW,194,0.0,0.0,62,0.00,,,0.00,WMR918D-Custom,2013-02-28 05:40:00,
2013-02-27 21:50:00,52.5,39.2,30.48,SSW,210,0.0,0.0,63,0.00,,,0.00,WMR918D-Custom,2013-02-28 05:50:00,
2013-02-27 22:00:00,52.3,39.0,30.48,WSW,245,0.0,0.0,63,0.00,,,0.00,WMR918D-Custom,2013-02-28 06:00:00,
2013-02-27 22:10:00,52.2,39.2,30.48,ESE,113,0.0,0.0,64,0.00,,,0.00,WMR918D-Custom,2013-02-28 06:10:00,
2013-02-27 22:20:00,51.8,39.2,30.48,South,180,0.0,0.0,65,0.00,,,0.00,WMR918D-Custom,2013-02-28 06:20:00,
2013-02-27 22:30:00,51.4,39.2,30.48,South,180,0.0,0.0,66,0.00,,,0.00,WMR918D-Custom,2013-02-28 06:30:00,
2013-02-27 22:40:00,50.9,39.0,30.48,South,179,0.0,0.0,67,0.00,,,0.00,WMR918D-Custom,2013-02-28 06:40:00,
2013-02-27 22:50:00,50.5,39.0,30.48,South,179,0.0,0.0,68,0.00,,,0.00,WMR918D-Custom,2013-02-28 06:50:00,
2013-02-27 23:00:00,50.0,38.5,30.48,South,180,0.0,0.0,68,0.00,,,0.00,WMR918D-Custom,2013-02-28 07:00:00,
2013-02-27 23:10:00,49.8,39.0,30.48,South,180,0.0,0.0,70,0.00,,,0.00,WMR918D-Custom,2013-02-28 07:10:00,
2013-02-27 23:20:00,49.5,38.7,30.48,South,180,0.0,0.0,70,0.00,,,0.00,WMR918D-Custom,2013-02-28 07:20:00,
2013-02-27 23:30:00,49.1,38.7,30.48,South,180,0.0,0.0,71,0.00,,,0.00,WMR918D-Custom,2013-02-28 07:30:00,
2013-02-27 23:40:00,48.7,38.7,30.48,NE,44,0.0,0.0,72,0.00,,,0.00,WMR918D-Custom,2013-02-28 07:40:00,
2013-02-27 23:50:00,48.4,38.3,30.48,NE,45,0.0,0.0,72,0.00,,,0.00,WMR918D-Custom,2013-02-28 07:50:00,